Time;durP1;ratioP1;P1;durP2;ratioP2;P2;SDS_P1;SDS_P2;PMS_P1;PMS_P2;Temp;Humidity;BMP_temperature;BMP_pressure;BME280_temperature;BME280_humidity;BME280_pressure;Samples;Min_cycle;Max_cycle;Signal;HPM_P1;HPM_P2
2022/06/20 00:00:25;;;;;;;7.85;6.50;;;25.80;57.80;;;;;;4991672;28;20430;-65
2022/06/20 00:02:56;;;;;;;9.05;6.32;;;25.80;57.90;;;;;;4992096;28;20767;-65
2022/06/20 00:05:25;;;;;;;8.43;5.82;;;25.80;57.80;;;;;;4992109;28;20897;-65
2022/06/20 00:07:51;;;;;;;9.70;6.40;;;25.80;57.80;;;;;;4992110;28;20401;-65
2022/06/20 00:10:20;;;;;;;8.57;6.03;;;25.80;57.80;;;;;;4991534;28;20402;-65
2022/06/20 00:12:46;;;;;;;9.65;6.55;;;25.80;57.80;;;;;;4991691;28;20389;-65
2022/06/20 00:15:29;;;;;;;7.97;6.05;;;25.80;57.70;;;;;;4994158;28;20403;-65
2022/06/20 00:17:55;;;;;;;8.23;6.00;;;25.80;57.80;;;;;;5002218;28;20394;-65
2022/06/20 00:20:22;;;;;;;7.50;6.10;;;25.80;57.70;;;;;;4999738;28;20442;-66
2022/06/20 00:22:47;;;;;;;7.30;6.03;;;25.80;57.80;;;;;;5001748;28;20385;-66
2022/06/20 00:25:14;;;;;;;9.97;5.93;;;25.80;57.60;;;;;;5001850;28;20401;-65
2022/06/20 00:27:39;;;;;;;9.50;6.53;;;25.80;57.60;;;;;;4982820;28;20382;-66
2022/06/20 00:30:06;;;;;;;7.75;6.00;;;25.80;57.60;;;;;;5002155;28;20403;-64
2022/06/20 00:32:32;;;;;;;8.05;5.90;;;25.80;57.60;;;;;;4996043;28;20425;-64
2022/06/20 00:34:58;;;;;;;10.07;6.40;;;25.80;57.70;;;;;;4974264;28;20430;-65
2022/06/20 00:37:23;;;;;;;8.07;6.20;;;25.80;57.60;;;;;;4991837;28;20444;-66
2022/06/20 00:39:50;;;;;;;7.03;6.00;;;25.80;57.60;;;;;;4991772;28;20938;-65
2022/06/20 00:42:17;;;;;;;7.97;6.37;;;25.80;57.70;;;;;;4991397;28;20418;-65
2022/06/20 00:44:46;;;;;;;8.33;5.90;;;25.80;57.50;;;;;;4991650;28;20499;-65
2022/06/20 00:47:23;;;;;;;7.70;6.53;;;25.70;57.50;;;;;;4991687;28;20398;-64
2022/06/20 00:50:03;;;;;;;7.72;6.10;;;25.80;57.60;;;;;;4991619;28;20394;-63
2022/06/20 00:52:40;;;;;;;8.70;6.33;;;25.80;57.50;;;;;;4991286;28;20398;-64
2022/06/20 00:55:24;;;;;;;8.65;6.47;;;25.80;57.60;;;;;;4991736;28;20398;-65
2022/06/20 00:58:04;;;;;;;7.82;6.35;;;25.80;57.60;;;;;;4991670;28;20489;-65
2022/06/20 01:00:36;;;;;;;8.65;6.68;;;25.80;57.50;;;;;;4991105;28;20771;-65
2022/06/20 01:03:13;;;;;;;8.48;6.30;;;25.70;57.50;;;;;;4991672;28;20398;-65
2022/06/20 01:06:00;;;;;;;8.02;6.30;;;25.70;57.50;;;;;;4991567;28;20418;-63
2022/06/20 01:08:30;;;;;;;8.23;6.33;;;25.70;57.40;;;;;;4991136;28;20434;-64
2022/06/20 01:11:04;;;;;;;7.22;6.28;;;25.70;57.50;;;;;;4974213;28;20743;-65
2022/06/20 01:13:29;;;;;;;7.45;6.15;;;25.70;57.40;;;;;;4991501;28;20755;-64
2022/06/20 01:16:01;;;;;;;7.72;6.20;;;25.70;57.40;;;;;;4974121;28;20405;-64
2022/06/20 01:18:33;;;;;;;7.47;6.10;;;25.70;57.40;;;;;;4991100;28;20393;-63
2022/06/20 01:21:01;;;;;;;8.27;6.32;;;25.70;57.30;;;;;;4991488;28;20439;-63
2022/06/20 01:23:45;;;;;;;9.03;6.63;;;25.70;57.30;;;;;;4991139;28;20587;-64
2022/06/20 01:26:41;;;;;;;8.23;6.38;;;25.70;57.30;;;;;;4993379;28;20558;-64
2022/06/20 01:29:09;;;;;;;8.23;6.75;;;25.70;57.60;;;;;;4977383;28;20887;-66
2022/06/20 01:31:42;;;;;;;8.68;6.25;;;25.70;57.50;;;;;;4994769;28;20393;-65
2022/06/20 01:34:08;;;;;;;8.77;6.30;;;25.70;57.40;;;;;;4994812;28;20434;-66
2022/06/20 01:39:24;;;;;;;7.13;6.30;;;25.70;57.30;;;;;;4994438;28;20546;-66
2022/06/20 01:44:39;;;;;;;8.82;6.45;;;25.70;57.40;;;;;;4994182;28;20464;-65
2022/06/20 01:47:05;;;;;;;8.23;6.38;;;25.70;57.30;;;;;;4994184;28;20398;-65
2022/06/20 01:49:32;;;;;;;8.43;6.50;;;25.70;57.40;;;;;;4994486;28;20411;-65
2022/06/20 01:52:00;;;;;;;7.38;6.28;;;25.60;57.20;;;;;;4994506;28;20922;-65
2022/06/20 01:54:29;;;;;;;7.57;6.10;;;25.60;57.30;;;;;;4993919;28;20461;-66
2022/06/20 01:56:55;;;;;;;8.23;6.50;;;25.60;57.20;;;;;;4994357;28;20397;-65
2022/06/20 01:59:26;;;;;;;8.15;6.20;;;25.60;57.20;;;;;;4994301;28;20382;-65
2022/06/20 02:01:53;;;;;;;7.97;6.32;;;25.60;57.10;;;;;;4994322;28;20395;-65
2022/06/20 02:04:23;;;;;;;8.43;6.20;;;25.60;57.20;;;;;;4993786;28;20395;-64
2022/06/20 02:06:50;;;;;;;8.38;6.47;;;25.60;57.10;;;;;;4994258;28;20407;-65
2022/06/20 02:09:16;;;;;;;7.80;6.32;;;25.60;57.10;;;;;;4994175;28;20422;-65
2022/06/20 02:11:45;;;;;;;8.13;6.68;;;25.60;57.20;;;;;;4994130;28;20485;-65
2022/06/20 02:14:22;;;;;;;9.85;6.65;;;25.60;57.10;;;;;;4994080;28;20474;-65
2022/06/20 02:16:54;;;;;;;7.72;6.10;;;25.60;57.20;;;;;;4976494;28;20803;-65
2022/06/20 02:19:26;;;;;;;7.77;6.33;;;25.60;57.20;;;;;;4993944;28;20478;-65
2022/06/20 02:21:56;;;;;;;8.10;6.50;;;25.60;57.30;;;;;;4993999;28;20394;-65
2022/06/20 02:24:24;;;;;;;7.93;6.15;;;25.60;57.20;;;;;;4993359;28;20889;-66
2022/06/20 02:26:53;;;;;;;8.23;6.38;;;25.60;57.20;;;;;;4993813;28;20810;-65
2022/06/20 02:29:22;;;;;;;7.27;6.40;;;25.60;57.20;;;;;;4993685;28;20782;-66
2022/06/20 02:31:52;;;;;;;8.55;6.10;;;25.60;57.20;;;;;;4993758;28;20403;-66
2022/06/20 02:34:17;;;;;;;8.38;6.70;;;25.60;57.10;;;;;;4975968;28;20444;-65
2022/06/20 02:36:44;;;;;;;8.60;6.38;;;25.60;57.20;;;;;;4993118;28;20790;-65
2022/06/20 02:39:10;;;;;;;8.32;6.35;;;25.60;57.20;;;;;;4993466;28;20401;-65
2022/06/20 02:41:39;;;;;;;8.90;6.70;;;25.60;57.20;;;;;;4993520;28;20405;-65
2022/06/20 02:44:09;;;;;;;7.72;6.50;;;25.50;57.10;;;;;;4993259;28;20379;-65
2022/06/20 02:46:35;;;;;;;9.37;6.37;;;25.60;57.20;;;;;;4993022;28;20484;-65
2022/06/20 02:49:03;;;;;;;8.13;6.35;;;25.50;57.10;;;;;;4993436;28;20470;-64
2022/06/20 02:51:35;;;;;;;8.70;6.38;;;25.50;57.00;;;;;;4975898;28;20414;-65
2022/06/20 02:54:03;;;;;;;8.82;6.60;;;25.60;57.20;;;;;;4993368;28;20394;-65
2022/06/20 02:56:37;;;;;;;8.95;6.50;;;25.60;57.10;;;;;;4992758;28;20387;-65
2022/06/20 02:59:11;;;;;;;8.68;6.60;;;25.50;57.10;;;;;;4975662;28;20418;-65
2022/06/20 03:01:47;;;;;;;7.72;6.28;;;25.60;57.20;;;;;;4993232;28;20428;-65
2022/06/20 03:04:12;;;;;;;8.27;6.75;;;25.60;57.70;;;;;;4975152;28;20398;-65
2022/06/20 03:07:00;;;;;;;7.63;6.32;;;25.50;57.10;;;;;;4992267;28;20394;-65
2022/06/20 03:09:32;;;;;;;7.07;6.10;;;25.50;57.10;;;;;;4992983;28;20397;-66
2022/06/20 03:12:01;;;;;;;8.30;6.43;;;25.50;57.20;;;;;;4992863;28;20398;-65
2022/06/20 03:14:47;;;;;;;9.27;7.07;;;25.50;57.00;;;;;;4992239;28;20890;-66
2022/06/20 03:17:16;;;;;;;9.82;6.80;;;25.60;58.10;;;;;;4992861;28;20399;-66
2022/06/20 03:19:47;;;;;;;12.70;7.75;;;25.50;58.40;;;;;;4992894;28;20410;-65
2022/06/20 03:22:19;;;;;;;15.45;8.20;;;25.60;60.20;;;;;;4992704;28;20399;-67
2022/06/20 03:24:46;;;;;;;16.85;9.30;;;25.60;58.60;;;;;;4992522;28;20387;-66
2022/06/20 03:27:16;;;;;;;20.42;10.10;;;25.60;60.10;;;;;;4992517;28;20497;-65
2022/06/20 03:29:44;;;;;;;21.35;9.77;;;25.60;60.40;;;;;;4992485;28;20401;-66
2022/06/20 03:32:10;;;;;;;18.92;9.90;;;25.60;60.60;;;;;;4975207;28;20394;-66
2022/06/20 03:34:36;;;;;;;19.52;10.25;;;25.60;60.40;;;;;;4995294;28;20394;-66
2022/06/20 03:37:02;;;;;;;17.67;10.07;;;25.60;60.90;;;;;;4996761;28;20395;-65
2022/06/20 03:39:29;;;;;;;19.00;10.63;;;25.60;61.80;;;;;;4992003;28;20468;-65
2022/06/20 03:41:54;;;;;;;20.20;10.10;;;25.60;62.20;;;;;;4992265;28;20390;-66
2022/06/20 03:44:29;;;;;;;17.90;10.68;;;25.60;61.30;;;;;;4991274;28;20417;-66
2022/06/20 03:47:10;;;;;;;22.75;10.75;;;25.70;61.20;;;;;;4992120;28;20481;-66
2022/06/20 03:49:46;;;;;;;19.60;10.32;;;25.60;60.10;;;;;;4991685;28;20382;-65
2022/06/20 03:52:20;;;;;;;18.10;10.65;;;25.60;59.10;;;;;;4992242;28;20391;-66
2022/06/20 03:54:58;;;;;;;21.58;11.07;;;25.60;58.70;;;;;;4991906;28;20755;-66
2022/06/20 03:57:36;;;;;;;19.80;10.77;;;25.50;59.10;;;;;;4991644;28;20391;-66
2022/06/20 04:00:11;;;;;;;19.88;11.30;;;25.60;59.00;;;;;;4991999;28;20964;-66
2022/06/20 04:02:53;;;;;;;21.65;11.00;;;25.60;58.90;;;;;;4991770;28;20401;-66
2022/06/20 04:05:26;;;;;;;21.85;10.82;;;25.50;59.10;;;;;;4992329;28;20429;-66
2022/06/20 04:08:01;;;;;;;17.98;10.65;;;25.50;58.40;;;;;;4992493;28;20383;-66
2022/06/20 04:13:42;;;;;;;21.83;11.15;;;25.50;59.20;;;;;;4993234;28;20394;-66
2022/06/20 04:16:15;;;;;;;21.83;11.25;;;25.50;58.80;;;;;;4992063;28;20465;-67
2022/06/20 04:19:07;;;;;;;23.35;10.98;;;25.50;59.00;;;;;;4991296;28;20409;-66
2022/06/20 04:22:02;;;;;;;21.73;11.57;;;25.50;58.60;;;;;;4991931;28;20949;-66
2022/06/20 04:24:39;;;;;;;20.33;10.40;;;25.50;58.70;;;;;;5003972;28;20505;-66
2022/06/20 04:27:12;;;;;;;20.48;10.70;;;25.50;58.80;;;;;;5002866;28;20900;-67
2022/06/20 04:29:49;;;;;;;18.30;10.35;;;25.50;58.80;;;;;;5010071;28;20479;-68
2022/06/20 04:32:24;;;;;;;20.15;10.93;;;25.50;59.10;;;;;;4982259;28;20452;-66
2022/06/20 04:34:59;;;;;;;18.95;10.57;;;25.50;60.10;;;;;;4999030;28;21764;-67
2022/06/20 04:37:38;;;;;;;20.08;10.05;;;25.50;60.50;;;;;;5000819;28;20399;-66
2022/06/20 04:40:22;;;;;;;17.02;10.38;;;25.50;60.20;;;;;;5000754;28;20490;-67
2022/06/20 04:42:54;;;;;;;16.40;9.88;;;25.60;60.20;;;;;;5001593;28;20401;-67
2022/06/20 04:45:40;;;;;;;17.27;10.43;;;25.60;60.00;;;;;;5001581;28;20416;-66
2022/06/20 04:48:19;;;;;;;19.45;10.25;;;25.60;59.90;;;;;;4983961;28;20433;-67
2022/06/20 04:50:51;;;;;;;16.67;10.07;;;25.60;60.00;;;;;;5020067;28;20411;-66
2022/06/20 04:53:23;;;;;;;13.07;9.03;;;25.60;59.30;;;;;;5005828;28;20812;-66
2022/06/20 04:55:53;;;;;;;14.90;9.20;;;25.60;58.90;;;;;;4992238;28;20473;-66
2022/06/20 04:58:27;;;;;;;15.98;9.38;;;25.60;58.60;;;;;;4991452;28;20394;-66
2022/06/20 05:00:53;;;;;;;13.83;9.40;;;25.60;59.20;;;;;;4994340;28;20515;-66
2022/06/20 05:03:39;;;;;;;14.67;9.40;;;25.50;58.90;;;;;;4995321;28;20387;-66
2022/06/20 05:06:09;;;;;;;13.80;9.30;;;25.60;58.60;;;;;;5000604;28;20389;-66
2022/06/20 05:08:39;;;;;;;14.95;9.52;;;25.50;58.50;;;;;;5014096;28;20388;-66
2022/06/20 05:11:11;;;;;;;13.48;9.20;;;25.60;58.90;;;;;;5014550;28;20442;-66
2022/06/20 05:13:57;;;;;;;11.77;9.05;;;25.50;58.90;;;;;;5014661;28;20526;-66
2022/06/20 05:16:27;;;;;;;18.85;9.07;;;25.50;58.90;;;;;;5014673;28;20472;-67
2022/06/20 05:18:56;;;;;;;21.45;9.60;;;25.50;58.70;;;;;;4996701;28;20428;-66
2022/06/20 05:21:28;;;;;;;18.38;9.75;;;25.50;58.80;;;;;;5014153;28;20852;-66
2022/06/20 05:23:58;;;;;;;21.10;9.20;;;25.50;58.70;;;;;;4996938;28;20860;-65
2022/06/20 05:26:29;;;;;;;15.65;9.18;;;25.50;58.90;;;;;;5014473;28;21066;-66
2022/06/20 05:28:57;;;;;;;15.00;9.00;;;25.50;58.80;;;;;;5014857;28;20404;-64
2022/06/20 05:31:34;;;;;;;13.25;8.60;;;25.50;58.70;;;;;;4996304;28;20462;-66
2022/06/20 05:34:02;;;;;;;12.47;8.57;;;25.50;58.90;;;;;;4994803;28;20455;-66
2022/06/20 05:36:35;;;;;;;15.02;8.57;;;25.50;58.80;;;;;;5004259;28;20485;-66
2022/06/20 05:39:29;;;;;;;12.23;8.30;;;25.50;58.70;;;;;;4994700;28;20399;-66
2022/06/20 05:41:55;;;;;;;11.23;7.90;;;25.50;58.60;;;;;;4979579;28;20969;-64
2022/06/20 05:44:21;;;;;;;12.27;8.43;;;25.50;58.50;;;;;;4999384;28;20493;-65
2022/06/20 05:46:55;;;;;;;13.68;8.32;;;25.50;58.60;;;;;;5003268;28;20499;-65
2022/06/20 05:49:29;;;;;;;18.50;9.00;;;25.50;58.60;;;;;;5003828;28;20884;-66
2022/06/20 05:51:58;;;;;;;13.27;8.60;;;25.50;58.70;;;;;;5003100;28;20929;-66
2022/06/20 05:54:28;;;;;;;14.87;8.30;;;25.50;58.70;;;;;;5008320;28;20415;-64
2022/06/20 05:57:16;;;;;;;15.35;8.70;;;25.50;58.70;;;;;;5011775;28;20385;-66
2022/06/20 05:59:44;;;;;;;12.77;8.82;;;25.50;58.80;;;;;;5013097;28;20420;-66
2022/06/20 06:02:41;;;;;;;14.70;8.52;;;25.40;58.70;;;;;;5013601;28;20401;-66
2022/06/20 06:05:10;;;;;;;11.70;7.75;;;25.50;58.80;;;;;;5013595;28;20437;-67
2022/06/20 06:07:44;;;;;;;12.50;8.70;;;25.50;59.10;;;;;;5000084;28;20410;-65
2022/06/20 06:10:29;;;;;;;12.43;8.63;;;25.40;58.70;;;;;;4996508;28;20459;-65
2022/06/20 06:13:36;;;;;;;10.95;7.97;;;25.40;58.80;;;;;;4998832;28;20385;-67
2022/06/20 06:19:15;;;;;;;10.93;8.27;;;25.40;58.70;;;;;;5003100;28;20495;-66
2022/06/20 06:21:43;;;;;;;10.00;8.18;;;25.40;58.60;;;;;;4996338;28;20412;-65
2022/06/20 06:24:12;;;;;;;10.85;8.10;;;25.40;58.60;;;;;;5010408;28;20401;-65
2022/06/20 06:26:40;;;;;;;12.95;8.40;;;25.40;58.70;;;;;;4992311;28;20399;-65
2022/06/20 06:29:10;;;;;;;10.88;7.88;;;25.40;58.60;;;;;;5003342;28;20393;-66
2022/06/20 06:31:40;;;;;;;11.38;8.13;;;25.40;58.60;;;;;;5006867;28;20477;-65
2022/06/20 06:34:32;;;;;;;10.73;8.15;;;25.40;58.60;;;;;;4999431;28;20385;-66
2022/06/20 06:37:03;;;;;;;11.63;7.97;;;25.40;58.70;;;;;;4992565;28;20896;-66
2022/06/20 06:39:40;;;;;;;12.27;8.32;;;25.40;58.70;;;;;;4993467;28;20481;-65
2022/06/20 06:42:13;;;;;;;9.05;8.05;;;25.40;58.70;;;;;;4993548;28;20398;-64
2022/06/20 06:44:43;;;;;;;11.10;7.95;;;25.40;58.80;;;;;;4995950;28;20412;-65
2022/06/20 06:47:19;;;;;;;10.93;8.18;;;25.40;58.70;;;;;;4997390;28;20410;-65
2022/06/20 06:49:47;;;;;;;12.13;8.35;;;25.40;58.80;;;;;;5008717;28;20381;-66
2022/06/20 06:52:25;;;;;;;10.68;7.82;;;25.40;58.80;;;;;;4991015;28;20482;-63
2022/06/20 06:55:06;;;;;;;9.27;7.65;;;25.30;58.80;;;;;;4977456;28;20425;-66
2022/06/20 06:57:38;;;;;;;10.63;7.93;;;25.40;58.90;;;;;;4993105;28;20761;-66
2022/06/20 07:00:04;;;;;;;9.98;7.60;;;25.30;58.80;;;;;;4993050;28;20456;-65
2022/06/20 07:02:36;;;;;;;10.88;7.78;;;25.40;58.90;;;;;;4992782;28;20426;-65
2022/06/20 07:05:14;;;;;;;11.20;7.47;;;25.30;58.80;;;;;;4997576;28;20439;-65
2022/06/20 07:07:51;;;;;;;10.20;7.88;;;25.30;58.80;;;;;;5006479;28;20393;-66
2022/06/20 07:10:25;;;;;;;10.05;8.10;;;25.30;58.70;;;;;;4997170;28;20908;-65
2022/06/20 07:12:52;;;;;;;11.97;7.97;;;25.30;58.70;;;;;;4992359;28;20414;-66
2022/06/20 07:15:20;;;;;;;10.60;7.85;;;25.30;58.70;;;;;;4992938;28;20394;-65
2022/06/20 07:18:04;;;;;;;10.05;7.75;;;25.30;58.70;;;;;;4975348;28;20409;-63
2022/06/20 07:20:39;;;;;;;9.75;7.85;;;25.30;58.70;;;;;;5004361;28;20428;-66
2022/06/20 07:23:12;;;;;;;9.70;8.02;;;25.30;58.70;;;;;;5000392;28;20397;-66
2022/06/20 07:25:41;;;;;;;9.68;7.75;;;25.30;58.80;;;;;;5004276;28;20488;-65
2022/06/20 07:28:07;;;;;;;10.40;8.50;;;25.30;58.80;;;;;;5008950;28;20468;-65
2022/06/20 07:30:42;;;;;;;10.18;7.70;;;25.30;58.80;;;;;;4995346;28;20496;-65
2022/06/20 07:33:15;;;;;;;9.50;7.35;;;25.30;58.80;;;;;;5012005;28;20408;-65
2022/06/20 07:35:52;;;;;;;10.15;8.05;;;25.30;58.80;;;;;;5012337;28;20393;-66
2022/06/20 07:38:21;;;;;;;12.40;7.93;;;25.30;58.80;;;;;;5012087;28;20869;-66
2022/06/20 07:40:54;;;;;;;12.15;7.97;;;25.30;58.80;;;;;;5011249;28;20817;-65
2022/06/20 07:43:41;;;;;;;11.68;7.72;;;25.30;58.80;;;;;;4991512;28;20399;-66
2022/06/20 07:46:12;;;;;;;12.23;7.75;;;25.30;58.70;;;;;;5000772;28;20969;-66
2022/06/20 07:48:42;;;;;;;10.95;7.20;;;25.30;58.80;;;;;;4992043;28;20526;-65
2022/06/20 07:51:25;;;;;;;11.00;7.72;;;25.30;58.80;;;;;;4991617;28;20414;-66
2022/06/20 07:54:28;;;;;;;10.87;8.00;;;25.30;58.70;;;;;;4994047;28;20456;-65
2022/06/20 07:57:02;;;;;;;10.52;7.10;;;25.30;58.70;;;;;;4993892;28;20500;-65
2022/06/20 07:59:37;;;;;;;10.43;7.53;;;25.30;58.70;;;;;;4999619;28;20401;-65
2022/06/20 08:02:27;;;;;;;9.73;7.35;;;25.30;58.70;;;;;;5004436;28;20428;-65
2022/06/20 08:04:57;;;;;;;12.30;7.45;;;25.30;58.70;;;;;;5004212;28;20399;-65
2022/06/20 08:07:31;;;;;;;9.60;7.30;;;25.30;58.80;;;;;;4989273;28;20765;-65
2022/06/20 08:10:07;;;;;;;10.25;7.38;;;25.30;58.70;;;;;;5012117;28;20750;-66
2022/06/20 08:12:43;;;;;;;9.13;7.43;;;25.30;58.90;;;;;;5011536;28;20898;-66
2022/06/20 08:15:23;;;;;;;8.75;7.40;;;25.30;58.80;;;;;;5011408;28;20487;-65
2022/06/20 08:17:50;;;;;;;8.82;7.15;;;25.30;58.80;;;;;;5011433;28;20389;-66
2022/06/20 08:20:17;;;;;;;10.57;7.45;;;25.30;58.70;;;;;;5011486;28;20421;-65
2022/06/20 08:22:48;;;;;;;9.95;7.38;;;25.30;58.70;;;;;;5010669;28;20395;-65
2022/06/20 08:25:25;;;;;;;9.23;7.65;;;25.30;58.70;;;;;;5011229;28;20439;-66
2022/06/20 08:28:03;;;;;;;9.50;7.18;;;25.30;58.70;;;;;;5011319;28;20911;-66
2022/06/20 08:30:34;;;;;;;9.85;7.20;;;25.30;58.60;;;;;;5004213;28;20756;-66
2022/06/20 08:33:15;;;;;;;9.25;7.20;;;25.30;58.60;;;;;;5009131;28;20392;-66
2022/06/20 08:35:45;;;;;;;9.93;7.30;;;25.30;58.60;;;;;;4996831;28;20455;-65
2022/06/20 08:38:44;;;;;;;9.30;7.20;;;25.30;58.60;;;;;;5015196;28;20397;-65
2022/06/20 08:41:48;;;;;;;8.55;7.32;;;25.30;58.60;;;;;;5005798;28;20426;-65
2022/06/20 08:44:25;;;;;;;9.95;7.15;;;25.30;58.60;;;;;;4980379;28;20414;-63
2022/06/20 08:47:09;;;;;;;9.15;7.43;;;25.30;58.50;;;;;;5009914;28;20396;-65
2022/06/20 08:49:47;;;;;;;8.48;7.50;;;25.30;58.50;;;;;;5014809;28;20426;-65
2022/06/20 08:52:42;;;;;;;8.82;7.30;;;25.30;58.60;;;;;;5014701;28;20392;-66
2022/06/20 08:55:17;;;;;;;8.55;7.32;;;25.30;58.60;;;;;;5014815;28;20442;-65
2022/06/20 08:58:21;;;;;;;9.13;7.10;;;25.30;58.60;;;;;;5014900;28;20388;-65
2022/06/20 09:01:06;;;;;;;9.52;7.18;;;25.30;58.50;;;;;;5013730;28;20423;-65
2022/06/20 09:04:23;;;;;;;8.07;6.80;;;25.30;58.50;;;;;;5009673;28;20404;-65
2022/06/20 09:07:25;;;;;;;8.73;7.23;;;25.30;58.50;;;;;;4975797;28;20750;-65
2022/06/20 09:09:57;;;;;;;13.55;7.65;;;25.30;58.60;;;;;;4995392;28;20422;-65
2022/06/20 09:12:41;;;;;;;11.85;7.20;;;25.30;58.90;;;;;;5001562;28;20536;-65
2022/06/20 09:15:25;;;;;;;10.17;7.50;;;25.40;59.20;;;;;;5014391;28;20422;-65
2022/06/20 09:18:13;;;;;;;10.38;6.82;;;25.40;58.90;;;;;;4996933;28;20423;-65
2022/06/20 09:20:46;;;;;;;8.93;7.13;;;25.40;58.50;;;;;;5013897;28;20416;-65
2022/06/20 09:23:44;;;;;;;8.50;6.73;;;25.40;58.60;;;;;;5014269;28;20873;-65
2022/06/20 09:26:36;;;;;;;9.90;6.63;;;25.40;58.50;;;;;;5014363;28;20476;-64
2022/06/20 09:29:14;;;;;;;9.40;7.10;;;25.40;58.60;;;;;;5013782;28;20401;-65
2022/06/20 09:31:55;;;;;;;9.95;6.85;;;25.40;58.60;;;;;;4996640;28;20393;-65
2022/06/20 09:34:42;;;;;;;8.88;6.90;;;25.40;58.40;;;;;;4996446;28;20433;-64
2022/06/20 09:37:25;;;;;;;11.13;7.13;;;25.40;58.40;;;;;;5013880;28;20408;-65
2022/06/20 09:39:53;;;;;;;12.23;7.40;;;25.40;58.30;;;;;;4996611;28;20550;-65
2022/06/20 09:42:27;;;;;;;10.90;6.70;;;25.40;58.30;;;;;;4996288;28;21018;-65
2022/06/20 09:45:07;;;;;;;11.05;7.07;;;25.40;58.50;;;;;;4995844;28;20498;-65
2022/06/20 09:47:39;;;;;;;9.23;6.70;;;25.50;58.40;;;;;;5012687;28;20463;-65
2022/06/20 09:50:29;;;;;;;10.73;7.03;;;25.50;58.50;;;;;;5013843;28;20393;-65
2022/06/20 09:53:19;;;;;;;10.27;6.75;;;25.50;59.20;;;;;;5013278;28;20919;-65
2022/06/20 09:56:21;;;;;;;7.88;6.50;;;25.50;58.60;;;;;;5013851;28;20405;-65
2022/06/20 09:59:06;;;;;;;9.43;6.97;;;25.50;58.50;;;;;;4968381;28;20432;-64
2022/06/20 10:01:42;;;;;;;8.67;6.60;;;25.50;58.50;;;;;;5013711;28;20514;-66
2022/06/20 10:04:35;;;;;;;10.10;6.72;;;25.40;59.10;;;;;;4995086;28;20484;-66
2022/06/20 10:07:16;;;;;;;8.30;6.30;;;25.50;58.30;;;;;;4982151;28;20407;-65
2022/06/20 10:10:03;;;;;;;8.25;6.57;;;25.50;58.30;;;;;;4996017;28;20385;-66
2022/06/20 10:13:08;;;;;;;9.77;6.75;;;25.50;58.30;;;;;;5015868;28;20409;-65
2022/06/20 10:15:43;;;;;;;9.27;6.43;;;25.50;58.50;;;;;;4960548;28;20408;-65
2022/06/20 10:18:36;;;;;;;7.80;6.75;;;25.50;58.30;;;;;;4992117;28;20405;-66
2022/06/20 10:21:14;;;;;;;8.10;6.55;;;25.50;58.20;;;;;;4998649;28;20776;-65
2022/06/20 10:23:42;;;;;;;7.93;6.47;;;25.50;58.20;;;;;;5013261;28;20392;-66
2022/06/20 10:26:20;;;;;;;8.35;6.55;;;25.50;58.20;;;;;;5013042;28;20450;-66
2022/06/20 10:28:56;;;;;;;8.85;6.63;;;25.50;58.40;;;;;;5012722;28;20885;-65
2022/06/20 10:31:25;;;;;;;8.73;6.70;;;25.50;58.30;;;;;;4994413;28;20397;-65
2022/06/20 10:34:13;;;;;;;9.05;6.90;;;25.50;58.30;;;;;;5013197;28;20393;-65
2022/06/20 10:36:44;;;;;;;8.60;6.63;;;25.50;58.30;;;;;;5013510;28;20427;-66
2022/06/20 10:39:20;;;;;;;9.52;7.05;;;25.50;58.30;;;;;;5012637;28;20476;-65
2022/06/20 10:42:20;;;;;;;14.15;6.60;;;25.50;58.40;;;;;;5012495;28;20915;-66
2022/06/20 10:44:58;;;;;;;13.30;7.00;;;25.50;58.60;;;;;;4937926;28;20422;-65
2022/06/20 10:47:51;;;;;;;12.10;7.25;;;25.50;58.60;;;;;;4985047;28;20413;-65
2022/06/20 10:50:43;;;;;;;13.48;6.35;;;25.50;58.70;;;;;;4953248;28;20420;-66
2022/06/20 10:53:21;;;;;;;9.82;7.03;;;25.50;58.50;;;;;;4979524;28;20399;-66
2022/06/20 10:56:09;;;;;;;12.95;6.45;;;25.60;58.60;;;;;;5000927;28;20741;-66
2022/06/20 10:58:44;;;;;;;10.65;6.57;;;25.60;58.30;;;;;;5002804;28;20432;-66
2022/06/20 11:01:24;;;;;;;9.47;7.00;;;25.60;58.30;;;;;;4995123;28;20999;-63
2022/06/20 11:04:29;;;;;;;10.07;6.50;;;25.60;58.30;;;;;;4992417;28;20473;-65
2022/06/20 11:07:10;;;;;;;9.10;6.95;;;25.60;58.10;;;;;;4948113;28;20606;-65
2022/06/20 11:10:16;;;;;;;10.35;6.90;;;25.60;58.20;;;;;;5005545;28;20387;-65
2022/06/20 11:13:00;;;;;;;9.27;6.68;;;25.60;58.40;;;;;;4994705;28;20403;-66
2022/06/20 11:15:31;;;;;;;10.30;6.97;;;25.60;58.50;;;;;;4994999;28;20494;-63
2022/06/20 11:18:27;;;;;;;17.83;10.30;;;25.60;58.50;;;;;;4992797;28;20441;-64
2022/06/20 11:21:28;;;;;;;20.48;10.45;;;25.60;58.70;;;;;;5006392;28;20484;-64
2022/06/20 11:24:12;;;;;;;24.50;12.50;;;25.70;58.60;;;;;;4992933;28;20397;-65
2022/06/20 11:27:33;;;;;;;39.65;19.90;;;25.70;59.10;;;;;;4993082;28;20409;-66
2022/06/20 11:30:08;;;;;;;221.73;119.88;;;25.70;59.90;;;;;;5001735;28;20428;-65
2022/06/20 11:32:51;;;;;;;145.60;82.10;;;25.80;60.80;;;;;;4992713;28;20406;-66
2022/06/20 11:35:45;;;;;;;97.15;53.90;;;25.80;60.00;;;;;;4995357;28;20395;-66
2022/06/20 11:38:31;;;;;;;93.20;50.13;;;25.80;59.70;;;;;;4993021;28;20934;-66
2022/06/20 11:41:00;;;;;;;70.20;38.45;;;25.80;60.40;;;;;;4976794;28;20770;-63
2022/06/20 11:43:45;;;;;;;68.07;37.40;;;25.80;60.20;;;;;;5000622;28;20525;-66
2022/06/20 11:46:38;;;;;;;63.80;34.70;;;25.80;59.80;;;;;;5003741;28;20420;-65
2022/06/20 11:49:13;;;;;;;57.47;33.20;;;25.80;59.40;;;;;;5008848;28;20864;-65
2022/06/20 11:51:51;;;;;;;50.92;28.52;;;25.80;59.10;;;;;;5005518;28;20893;-66
2022/06/20 11:54:53;;;;;;;50.92;27.70;;;25.80;59.00;;;;;;5006055;28;20401;-65
2022/06/20 11:57:35;;;;;;;47.55;26.40;;;25.80;58.80;;;;;;4984544;28;20961;-64
2022/06/20 12:00:21;;;;;;;44.67;25.20;;;25.80;58.70;;;;;;4989122;28;20441;-64
2022/06/20 12:03:00;;;;;;;41.75;23.67;;;25.80;58.50;;;;;;5000838;28;20863;-66
2022/06/20 12:05:44;;;;;;;39.10;22.95;;;25.80;58.60;;;;;;4994478;28;20408;-63
2022/06/20 12:08:22;;;;;;;36.65;21.58;;;25.80;58.50;;;;;;5002349;28;20433;-63
2022/06/20 12:10:55;;;;;;;40.60;21.98;;;25.80;58.30;;;;;;4982451;28;20412;-63
2022/06/20 12:13:51;;;;;;;33.38;19.90;;;25.80;58.20;;;;;;4999581;28;20441;-64
2022/06/20 12:16:41;;;;;;;30.58;18.23;;;25.80;58.30;;;;;;5002816;28;20762;-63
2022/06/20 12:25:39;;;;;;;28.00;17.05;;;25.80;57.90;;;;;;5011230;28;20446;-67
2022/06/20 12:28:25;;;;;;;27.10;16.10;;;25.80;57.90;;;;;;5011542;28;20419;-66
2022/06/20 12:31:09;;;;;;;23.42;14.77;;;25.90;58.00;;;;;;5011365;28;20385;-63
2022/06/20 12:33:49;;;;;;;25.70;14.88;;;25.90;57.90;;;;;;5006238;28;20385;-65
2022/06/20 12:36:55;;;;;;;23.02;13.55;;;25.90;58.00;;;;;;5001971;28;20395;-64
2022/06/20 12:39:53;;;;;;;21.10;13.33;;;25.90;58.00;;;;;;4992544;28;20407;-65
2022/06/20 12:42:42;;;;;;;20.20;12.30;;;25.90;57.90;;;;;;5006106;28;20421;-64
2022/06/20 12:45:46;;;;;;;18.27;12.02;;;25.90;57.90;;;;;;5011190;28;20446;-66
2022/06/20 12:48:25;;;;;;;21.08;12.20;;;25.90;58.00;;;;;;4975453;28;20477;-66
2022/06/20 12:51:36;;;;;;;20.70;12.00;;;25.90;58.00;;;;;;4995382;28;20434;-67
2022/06/20 12:54:20;;;;;;;18.65;11.60;;;25.90;58.00;;;;;;4977407;28;20395;-65
2022/06/20 12:57:04;;;;;;;18.70;11.75;;;25.90;58.00;;;;;;4992123;28;20494;-66
2022/06/20 12:59:48;;;;;;;17.58;11.35;;;25.90;57.90;;;;;;4991812;28;20383;-67
2022/06/20 13:03:06;;;;;;;18.33;11.50;;;25.90;57.90;;;;;;4991303;28;20919;-66
2022/06/20 13:05:44;;;;;;;15.30;10.90;;;26.00;58.00;;;;;;4994519;28;20430;-65
2022/06/20 13:08:32;;;;;;;17.95;10.63;;;25.90;57.80;;;;;;4992985;28;20394;-65
2022/06/20 13:11:23;;;;;;;15.15;10.45;;;25.90;57.90;;;;;;4976115;28;20394;-66
2022/06/20 13:14:26;;;;;;;19.27;10.50;;;25.90;57.80;;;;;;4992233;28;20386;-66
2022/06/20 13:17:07;;;;;;;14.13;9.95;;;25.90;57.80;;;;;;4975989;28;20763;-67
2022/06/20 13:19:37;;;;;;;14.50;9.90;;;25.90;57.80;;;;;;5000375;28;20385;-64
2022/06/20 13:22:40;;;;;;;14.30;9.98;;;25.90;57.80;;;;;;5009972;28;20402;-67
2022/06/20 13:25:20;;;;;;;13.85;10.13;;;26.00;57.90;;;;;;4985830;28;20481;-65
2022/06/20 13:28:13;;;;;;;14.48;10.20;;;25.90;58.00;;;;;;4997351;28;20876;-65
2022/06/20 13:31:09;;;;;;;18.83;10.38;;;26.00;58.10;;;;;;4993159;28;20407;-64
2022/06/20 13:33:53;;;;;;;15.98;9.63;;;26.00;59.70;;;;;;4996986;28;20463;-65
2022/06/20 13:36:40;;;;;;;17.40;10.07;;;26.00;58.80;;;;;;5013761;28;20417;-64
2022/06/20 13:39:21;;;;;;;15.35;9.88;;;26.00;58.40;;;;;;4995525;28;20768;-65
2022/06/20 13:42:14;;;;;;;16.60;9.77;;;26.00;58.70;;;;;;4993422;28;20427;-62
2022/06/20 13:44:57;;;;;;;14.43;9.55;;;26.00;58.40;;;;;;4987128;28;20406;-65
2022/06/20 13:47:38;;;;;;;14.55;9.27;;;26.00;58.30;;;;;;5001420;28;20896;-66
2022/06/20 13:50:04;;;;;;;15.20;9.68;;;26.00;58.70;;;;;;4995471;28;20412;-66